Pagina principale
METAR-TAF:

METAR-TAF

Aeroporti :

Genova, Italia

Aeroporto di Genova-Sestri

latitudine: 44-25N, longitudine: 008-51E, altezza: 2 m

Osservazione

Il bollettino è stato emesso 25 minuti fa, alle 06:20 UTC
Vento 7 kt da nord/nord-est, variando fra nord e est/nord-est
Temperature 24°C
Umidità 31%
Pressione 1006 hPa
Visibilità 10 km o più
Poco nuvoloso ad un'altezza di 4500 ft

METAR: LIMJ 260620Z 03007KT 360V070 9999 FEW045 24/06 Q1006

Ora: 08:45 (06:45 UTC)

Previsione

Il bollettino è stato emesso 1 ora e 45 minuti fa, alle 05:00 UTC
Previsione valida dal 26 alle 06 UTC al 27 alle 06 UTC
Vento 10 kt da ovest/sud-ovest
Visibilità 10 km o più
nessuna nube inferiore a 1500 m e nessun cumulonembo

TAF: LIMJ 260500Z 2606/2706 24010KT CAVOK

Osservazioni e previsioni meteorologiche di più di 4000 aeroporti (messaggi METAR e TAF).

Le stazioni disponibili sono rappresentate dai dischi gialli e rossi sulla carta.

Puntare il mouse per vedere il nome della stazione.

Clicca sopra per visualizzare le osservazioni e previsioni meteorologiche.

Per cambiare la mappa : fare clic sui pulsanti verdi con una croce nera per ingrandire, il pulsante verde con un trattino per diminuire, o sulla freccia verde per le mappe adiacenti.


METAR-TAF: